Time;durP1;ratioP1;P1;durP2;ratioP2;P2;SDS_P1;SDS_P2;PMS_P1;PMS_P2;Temp;Humidity;BMP_temperature;BMP_pressure;BME280_temperature;BME280_humidity;BME280_pressure;Samples;Min_cycle;Max_cycle;Signal;HPM_P1;HPM_P2
2022/12/06 00:00:06;;;;;;;6.30;3.63;;;;;;;1.01;100.00;101586.91;6221983;28;20050;-73
2022/12/06 00:03:08;;;;;;;5.93;3.15;;;;;;;1.05;100.00;101577.44;6222360;28;20049;-73
2022/12/06 00:06:12;;;;;;;4.68;2.38;;;;;;;1.03;100.00;101586.91;6222135;28;20053;-73
2022/12/06 00:09:17;;;;;;;8.15;3.50;;;;;;;0.98;100.00;101579.16;6221940;28;20568;-73
2022/12/06 00:12:18;;;;;;;10.10;4.03;;;;;;;1.02;100.00;101577.41;6222449;28;20151;-73
2022/12/06 00:15:20;;;;;;;5.75;2.90;;;;;;;1.01;100.00;101579.16;6221737;28;20058;-73
2022/12/06 00:18:21;;;;;;;7.80;3.63;;;;;;;0.94;100.00;101580.00;6222142;28;20476;-73
2022/12/06 00:21:24;;;;;;;6.28;3.28;;;;;;;0.93;100.00;101575.69;6222962;28;20046;-73
2022/12/06 00:24:27;;;;;;;5.60;3.08;;;;;;;0.99;100.00;101577.41;6227236;28;20057;-73
2022/12/06 00:27:29;;;;;;;6.13;3.05;;;;;;;0.93;100.00;101577.44;6226888;28;20184;-73
2022/12/06 00:30:30;;;;;;;9.77;3.92;;;;;;;0.96;100.00;101567.94;6227040;28;20053;-73
2022/12/06 00:33:34;;;;;;;6.30;3.42;;;;;;;0.92;100.00;101571.41;6226750;28;20050;-73
2022/12/06 00:36:37;;;;;;;4.75;2.70;;;;;;;0.87;100.00;101570.53;6226969;28;20061;-73
2022/12/06 00:39:40;;;;;;;5.45;3.38;;;;;;;0.96;100.00;101570.53;6226934;28;20091;-73
2022/12/06 00:42:42;;;;;;;6.65;3.75;;;;;;;0.94;100.00;101572.25;6226621;28;20506;-73
2022/12/06 00:45:43;;;;;;;8.50;3.67;;;;;;;0.97;100.00;101566.22;6226674;28;20268;-73
2022/12/06 00:48:46;;;;;;;4.75;2.47;;;;;;;0.96;100.00;101573.13;6226601;28;20054;-73
2022/12/06 00:51:47;;;;;;;8.40;3.40;;;;;;;0.96;100.00;101573.13;6226565;28;20409;-73
2022/12/06 00:54:50;;;;;;;5.18;3.67;;;;;;;0.93;100.00;101567.94;6226216;28;20111;-73
2022/12/06 00:57:52;;;;;;;3.45;2.45;;;;;;;0.93;100.00;101569.66;6226400;28;20076;-73
2022/12/06 01:00:53;;;;;;;4.43;2.15;;;;;;;0.92;100.00;101563.63;6226134;28;20655;-74
2022/12/06 01:03:59;;;;;;;5.95;3.58;;;;;;;0.97;100.00;101559.31;6226184;28;20137;-73
2022/12/06 01:07:00;;;;;;;4.22;2.92;;;;;;;0.93;100.00;101565.34;6226492;28;20076;-73
2022/12/06 01:10:04;;;;;;;5.13;2.92;;;;;;;0.95;100.00;101562.75;6226260;28;20046;-73
2022/12/06 01:13:07;;;;;;;3.80;2.40;;;;;;;0.94;100.00;101561.03;6225915;28;20104;-73
2022/12/06 01:16:11;;;;;;;6.03;3.70;;;;;;;0.91;100.00;101554.16;6225910;28;20061;-73
2022/12/06 01:19:13;;;;;;;4.93;2.70;;;;;;;0.86;100.00;101555.00;6225876;28;20046;-73
2022/12/06 01:22:14;;;;;;;4.03;2.63;;;;;;;0.91;100.00;101559.31;6225498;28;20072;-73
2022/12/06 01:25:17;;;;;;;7.32;3.25;;;;;;;0.91;100.00;101553.25;6225714;28;20058;-73
2022/12/06 01:28:19;;;;;;;5.38;2.20;;;;;;;0.97;100.00;101555.88;6225541;28;20056;-73
2022/12/06 01:31:21;;;;;;;3.40;2.65;;;;;;;0.98;100.00;101553.25;6225522;28;20046;-73
2022/12/06 01:34:22;;;;;;;4.38;2.78;;;;;;;1.02;100.00;101549.81;6225347;28;20056;-74
2022/12/06 01:37:24;;;;;;;5.63;3.28;;;;;;;1.07;100.00;101551.53;6225632;28;20050;-73
2022/12/06 01:40:26;;;;;;;3.95;2.60;;;;;;;1.10;100.00;101551.53;6225143;28;20413;-74
2022/12/06 01:43:30;;;;;;;3.65;2.15;;;;;;;1.07;100.00;101543.78;6225385;28;20057;-73
2022/12/06 01:46:34;;;;;;;6.07;2.67;;;;;;;1.07;100.00;101544.63;6225144;28;20041;-73
2022/12/06 01:49:35;;;;;;;5.95;2.40;;;;;;;1.01;100.00;101544.66;6225326;28;20057;-73
2022/12/06 01:52:43;;;;;;;5.03;2.88;;;;;;;1.05;100.00;101536.03;6225240;28;20057;-74
2022/12/06 01:55:46;;;;;;;4.03;2.30;;;;;;;1.06;100.00;101542.91;6225183;28;20104;-73
2022/12/06 01:58:51;;;;;;;3.72;2.25;;;;;;;0.99;100.00;101543.78;6224756;28;20517;-74
2022/12/06 02:01:53;;;;;;;5.68;2.70;;;;;;;1.03;100.00;101537.72;6225242;28;20053;-74
2022/12/06 02:04:56;;;;;;;5.78;3.42;;;;;;;1.10;100.00;101541.19;6224883;28;20056;-74
2022/12/06 02:08:00;;;;;;;10.68;3.38;;;;;;;1.06;100.00;101535.16;6224925;28;20089;-74
2022/12/06 02:11:04;;;;;;;7.43;2.92;;;;;;;1.10;100.00;101528.25;6224656;28;20050;-74
2022/12/06 02:14:09;;;;;;;6.75;4.28;;;;;;;1.11;100.00;101519.63;6224569;28;20061;-73
2022/12/06 02:17:25;;;;;;;6.72;3.45;;;;;;;1.08;100.00;101520.47;6224733;28;20050;-73
2022/12/06 02:20:32;;;;;;;6.15;3.67;;;;;;;1.09;100.00;101517.03;6224147;28;20053;-73
2022/12/06 02:24:16;;;;;;;8.60;3.92;;;;;;;1.07;100.00;101512.72;6224573;28;20069;-73
2022/12/06 02:27:37;;;;;;;8.40;3.72;;;;;;;1.01;100.00;101503.25;6216604;28;20080;-74
2022/12/06 02:30:47;;;;;;;4.93;3.35;;;;;;;1.02;100.00;101513.59;6224174;28;20042;-74
2022/12/06 02:33:52;;;;;;;8.13;4.13;;;;;;;1.06;100.00;101511.00;6224194;28;20144;-74
2022/12/06 02:36:59;;;;;;;11.00;5.03;;;;;;;1.11;100.00;101517.88;6223971;28;20058;-73
2022/12/06 02:40:06;;;;;;;8.90;4.75;;;;;;;1.11;100.00;101507.53;6223885;28;20053;-73
2022/12/06 02:43:13;;;;;;;6.68;3.72;;;;;;;1.03;100.00;101517.03;6223818;28;20049;-74
2022/12/06 02:46:19;;;;;;;7.72;4.22;;;;;;;0.98;100.00;101506.69;6223492;28;20056;-73
2022/12/06 02:49:23;;;;;;;9.15;4.03;;;;;;;1.02;100.00;101508.41;6223589;28;20057;-73
2022/12/06 02:52:27;;;;;;;7.85;3.47;;;;;;;0.99;100.00;101508.41;6223961;28;20050;-73
2022/12/06 02:55:30;;;;;;;6.78;3.55;;;;;;;1.00;100.00;101507.56;6223508;28;20133;-73
2022/12/06 02:58:34;;;;;;;10.77;4.20;;;;;;;1.01;100.00;101504.09;6223534;28;20061;-73
2022/12/06 03:01:42;;;;;;;8.63;4.95;;;;;;;1.13;100.00;101502.34;6223375;28;20041;-73
2022/12/06 03:04:57;;;;;;;9.57;4.65;;;;;;;1.12;100.00;101498.03;6223211;28;20528;-73
2022/12/06 03:08:02;;;;;;;7.68;3.65;;;;;;;1.09;100.00;101495.44;6223274;28;20049;-74
2022/12/06 03:11:04;;;;;;;8.85;4.53;;;;;;;1.10;100.00;101494.59;6223041;28;20049;-73
2022/12/06 03:14:10;;;;;;;8.52;4.28;;;;;;;1.12;100.00;101498.03;6223132;28;20060;-74
2022/12/06 03:17:21;;;;;;;7.78;4.00;;;;;;;1.11;100.00;101486.81;6223323;28;20160;-74
2022/12/06 03:20:28;;;;;;;7.38;3.95;;;;;;;1.11;100.00;101493.72;6222765;28;20576;-74
2022/12/06 03:23:33;;;;;;;7.18;4.13;;;;;;;1.07;100.00;101484.25;6223283;28;20049;-73
2022/12/06 03:26:36;;;;;;;7.78;4.22;;;;;;;1.10;100.00;101497.19;6222774;28;20050;-73
2022/12/06 03:29:59;;;;;;;9.23;4.32;;;;;;;1.09;100.00;101498.03;6223059;28;20057;-73
2022/12/06 03:33:03;;;;;;;8.70;4.18;;;;;;;1.13;100.00;101498.03;6223133;28;20056;-73
2022/12/06 03:36:07;;;;;;;7.80;4.18;;;;;;;1.12;100.00;101492.84;6222836;28;20053;-74
2022/12/06 03:39:10;;;;;;;7.40;4.45;;;;;;;1.10;100.00;101497.19;6222963;28;20053;-74
2022/12/06 03:42:11;;;;;;;8.35;4.85;;;;;;;1.02;100.00;101492.03;6222455;28;20046;-73
2022/12/06 03:45:13;;;;;;;14.32;4.65;;;;;;;0.98;100.00;101485.97;6222418;28;20050;-74
2022/12/06 03:48:21;;;;;;;13.82;5.28;;;;;;;1.05;100.00;101489.44;6222570;28;20049;-73
2022/12/06 03:51:27;;;;;;;5.97;3.60;;;;;;;1.11;100.00;101489.41;6222350;28;20057;-73
2022/12/06 03:54:28;;;;;;;7.47;4.45;;;;;;;1.14;100.00;101483.38;6222503;28;20100;-74
2022/12/06 03:57:30;;;;;;;12.52;4.63;;;;;;;1.14;100.00;101485.97;6221461;28;20061;-74
2022/12/06 04:00:31;;;;;;;9.30;5.70;;;;;;;1.19;100.00;101485.09;6222215;28;20517;-73
2022/12/06 04:03:34;;;;;;;10.20;4.82;;;;;;;1.22;100.00;101476.44;6222295;28;20049;-74
2022/12/06 04:06:35;;;;;;;7.72;3.60;;;;;;;1.26;100.00;101483.31;6222371;28;20056;-73
2022/12/06 04:09:54;;;;;;;8.13;3.67;;;;;;;1.31;100.00;101478.97;6222017;28;20061;-73
2022/12/06 04:13:00;;;;;;;9.88;4.80;;;;;;;1.40;100.00;101488.44;6222351;28;20050;-73
2022/12/06 04:16:03;;;;;;;8.20;4.72;;;;;;;1.40;100.00;101489.31;6222035;28;20561;-73
2022/12/06 04:19:04;;;;;;;13.73;5.25;;;;;;;1.39;100.00;101484.16;6221976;28;20422;-73
2022/12/06 04:25:25;;;;;;;10.05;4.25;;;;;;;1.35;100.00;101477.25;6222106;28;20058;-73
2022/12/06 04:38:41;;;;;;;10.85;4.57;;;;;;;1.46;100.00;101466.00;6221817;28;20057;-74
2022/12/06 04:45:01;;;;;;;;;;;;;;;1.58;100.00;101461.63;6222188;28;20497;-73
2022/12/06 04:48:03;;;;;;;14.55;5.53;;;;;;;1.51;100.00;101459.06;6221988;28;19922;-73
2022/12/06 04:51:06;;;;;;;10.30;4.78;;;;;;;1.49;100.00;101458.19;6221613;28;20050;-73
2022/12/06 04:54:08;;;;;;;13.15;5.95;;;;;;;1.50;100.00;101459.09;6221933;28;20049;-73
2022/12/06 04:57:12;;;;;;;10.80;5.75;;;;;;;1.58;100.00;101464.19;6221632;28;20050;-73
2022/12/06 05:00:15;;;;;;;12.80;6.18;;;;;;;1.59;100.00;101459.03;6221592;28;20046;-73
2022/12/06 05:03:16;;;;;;;21.30;7.05;;;;;;;1.61;100.00;101456.44;6221756;28;20050;-73
2022/12/06 05:06:19;;;;;;;12.30;6.00;;;;;;;1.62;100.00;101451.22;6221390;28;20050;-74
2022/12/06 05:09:21;;;;;;;11.52;4.97;;;;;;;1.65;100.00;101452.97;6225722;28;20054;-74
2022/12/06 05:12:22;;;;;;;10.82;5.60;;;;;;;1.60;100.00;101446.94;6226094;28;20042;-73
2022/12/06 05:15:24;;;;;;;10.85;5.53;;;;;;;1.65;100.00;101451.22;6225922;28;20072;-74
2022/12/06 05:18:26;;;;;;;18.30;5.63;;;;;;;1.71;100.00;101442.56;6225952;28;20058;-73
2022/12/06 05:21:29;;;;;;;12.68;5.45;;;;;;;1.72;100.00;101437.34;6225825;28;20049;-73
2022/12/06 05:24:30;;;;;;;12.13;4.85;;;;;;;1.71;100.00;101446.00;6225659;28;20056;-73
2022/12/06 05:27:31;;;;;;;9.50;4.93;;;;;;;1.74;100.00;101443.41;6226047;28;20046;-74
2022/12/06 05:30:33;;;;;;;13.10;4.30;;;;;;;1.74;100.00;101442.53;6225761;28;20512;-74
2022/12/06 05:33:35;;;;;;;13.38;5.32;;;;;;;1.73;100.00;101436.50;6225597;28;20698;-73
2022/12/06 05:36:38;;;;;;;19.15;5.43;;;;;;;1.71;100.00;101445.13;6225465;28;20049;-73
2022/12/06 05:39:39;;;;;;;12.38;4.25;;;;;;;1.68;100.00;101443.44;6225301;28;20049;-74
2022/12/06 05:42:41;;;;;;;11.07;4.97;;;;;;;1.72;100.00;101432.16;6225365;28;20057;-74
2022/12/06 05:45:42;;;;;;;16.17;5.85;;;;;;;1.71;100.00;101435.63;6225161;28;20061;-74
2022/12/06 05:48:44;;;;;;;8.23;5.05;;;;;;;1.73;100.00;101433.91;6225129;28;20417;-74
2022/12/06 05:51:47;;;;;;;11.82;5.55;;;;;;;1.79;100.00;101435.59;6224901;28;20072;-73
2022/12/06 05:54:48;;;;;;;13.25;4.35;;;;;;;1.82;100.00;101433.00;6225364;28;20049;-73
2022/12/06 05:57:50;;;;;;;11.90;5.72;;;;;;;1.79;100.00;101425.22;6224896;28;20061;-73
2022/12/06 06:00:51;;;;;;;17.15;6.13;;;;;;;1.85;100.00;101430.38;6224916;28;20057;-73
2022/12/06 06:03:53;;;;;;;12.80;5.28;;;;;;;1.93;100.00;101432.91;6224806;28;20060;-73
2022/12/06 06:06:55;;;;;;;16.35;5.15;;;;;;;1.99;100.00;101435.47;6224796;28;20431;-73
2022/12/06 06:09:57;;;;;;;12.77;5.22;;;;;;;2.02;100.00;101433.72;6224724;28;20058;-73
2022/12/06 06:12:58;;;;;;;15.65;6.05;;;;;;;2.06;100.00;101431.09;6213743;28;20061;-73
2022/12/06 06:16:00;;;;;;;16.05;5.75;;;;;;;2.09;100.00;101439.72;6221061;28;20453;-73
2022/12/06 06:19:01;;;;;;;12.38;5.60;;;;;;;2.12;100.00;101436.22;6223865;28;20057;-73
2022/12/06 06:22:04;;;;;;;11.63;6.00;;;;;;;2.17;100.00;101443.09;6224479;28;20060;-73
2022/12/06 06:25:07;;;;;;;12.20;4.88;;;;;;;2.20;100.00;101440.50;6224226;28;20405;-73
2022/12/06 06:28:08;;;;;;;13.18;4.93;;;;;;;2.21;100.00;101442.22;6224326;28;20604;-73
2022/12/06 06:31:09;;;;;;;11.10;5.25;;;;;;;2.17;100.00;101437.91;6224217;28;20053;-73
2022/12/06 06:34:11;;;;;;;17.60;6.68;;;;;;;2.14;100.00;101440.56;6224293;28;20049;-73
2022/12/06 06:37:13;;;;;;;16.30;5.82;;;;;;;2.16;100.00;101450.91;6224209;28;20134;-73
2022/12/06 06:40:15;;;;;;;11.25;5.68;;;;;;;2.20;100.00;101450.88;6223859;28;20046;-73
2022/12/06 06:43:20;;;;;;;11.00;5.70;;;;;;;2.24;100.00;101443.94;6210694;28;20409;-73
2022/12/06 06:46:21;;;;;;;12.13;5.13;;;;;;;2.28;100.00;101445.63;6211954;28;20053;-73
2022/12/06 06:49:23;;;;;;;16.70;6.97;;;;;;;2.32;100.00;101441.25;6210252;28;20045;-73
2022/12/06 06:52:26;;;;;;;13.95;5.03;;;;;;;2.32;100.00;101446.44;6209569;28;20387;-73
2022/12/06 06:55:29;;;;;;;16.25;6.85;;;;;;;2.34;100.00;101449.91;6212434;28;20042;-73
2022/12/06 06:58:30;;;;;;;10.70;4.93;;;;;;;2.32;100.00;101446.44;6223742;28;20099;-73
2022/12/06 07:01:31;;;;;;;11.20;4.63;;;;;;;2.37;100.00;101450.75;6215386;28;20050;-73
2022/12/06 07:04:33;;;;;;;12.70;4.57;;;;;;;2.41;100.00;101459.38;6221950;28;20057;-73
2022/12/06 07:07:36;;;;;;;13.30;5.00;;;;;;;2.44;100.00;101456.72;6213757;28;20043;-73
2022/12/06 07:10:37;;;;;;;16.33;4.72;;;;;;;2.45;100.00;101461.91;6211931;28;20547;-74
2022/12/06 07:13:40;;;;;;;12.98;5.38;;;;;;;2.49;100.00;101461.00;6219884;28;20050;-74
2022/12/06 07:16:42;;;;;;;17.88;7.25;;;;;;;2.53;100.00;101461.84;6216481;28;20045;-74
2022/12/06 07:19:43;;;;;;;12.88;4.88;;;;;;;2.57;100.00;101471.31;6215210;28;20042;-74
2022/12/06 07:22:46;;;;;;;7.75;4.10;;;;;;;2.63;100.00;101471.25;6217839;28;20037;-73
2022/12/06 07:25:47;;;;;;;11.05;4.05;;;;;;;2.71;100.00;101473.78;6212141;28;20053;-73
2022/12/06 07:28:50;;;;;;;8.43;3.40;;;;;;;2.75;100.00;101476.34;6222816;28;20053;-73
2022/12/06 07:31:51;;;;;;;12.77;4.53;;;;;;;2.78;100.00;101475.47;6222593;28;20513;-73
2022/12/06 07:34:52;;;;;;;7.15;3.75;;;;;;;2.77;100.00;101478.91;6222685;28;20060;-74
2022/12/06 07:37:55;;;;;;;10.98;4.22;;;;;;;2.81;100.00;101478.00;6224723;28;20042;-73
2022/12/06 07:41:01;;;;;;;10.38;4.30;;;;;;;2.83;100.00;101480.59;6222510;28;20417;-74
2022/12/06 07:47:21;;;;;;;13.63;4.22;;;;;;;2.85;100.00;101487.47;6222857;28;20136;-73
2022/12/06 07:50:23;;;;;;;8.68;4.35;;;;;;;2.85;100.00;101484.88;6222440;28;20054;-74
2022/12/06 07:53:25;;;;;;;9.45;4.93;;;;;;;2.87;100.00;101479.69;6223057;28;20050;-73
2022/12/06 07:56:27;;;;;;;9.93;5.05;;;;;;;2.89;100.00;101488.31;6222380;28;20050;-74
2022/12/06 07:59:28;;;;;;;10.95;4.55;;;;;;;2.87;100.00;101488.34;6222388;28;20329;-74
2022/12/06 08:02:30;;;;;;;12.40;4.55;;;;;;;2.86;100.00;101486.63;6222420;28;20056;-74
2022/12/06 08:05:31;;;;;;;19.42;5.85;;;;;;;2.85;100.00;101484.88;6222080;28;20061;-74
2022/12/06 08:08:34;;;;;;;21.05;5.28;;;;;;;2.87;100.00;101483.16;6222394;28;20065;-74
2022/12/06 08:11:36;;;;;;;13.00;5.75;;;;;;;2.87;100.00;101492.69;6222050;28;20046;-74
2022/12/06 08:14:38;;;;;;;9.07;4.40;;;;;;;2.90;100.00;101479.66;6222284;28;20050;-74
2022/12/06 08:17:40;;;;;;;13.85;5.07;;;;;;;2.87;100.00;101492.69;6221967;28;20056;-74
2022/12/06 08:20:42;;;;;;;11.93;4.75;;;;;;;2.91;100.00;101497.81;6222131;28;20045;-73
2022/12/06 08:23:45;;;;;;;13.48;4.72;;;;;;;2.95;100.00;101491.75;6222015;28;20046;-74
2022/12/06 08:26:46;;;;;;;12.38;5.13;;;;;;;2.95;100.00;101496.03;6222205;28;20049;-74
2022/12/06 08:29:48;;;;;;;12.98;5.43;;;;;;;2.95;100.00;101502.13;6221980;28;20053;-74
2022/12/06 08:32:49;;;;;;;14.85;5.60;;;;;;;2.93;100.00;101498.66;6222170;28;20053;-74
2022/12/06 08:35:52;;;;;;;8.38;4.05;;;;;;;2.95;100.00;101496.94;6221941;28;20057;-74
2022/12/06 08:38:56;;;;;;;14.13;5.25;;;;;;;2.96;100.00;101492.59;6221844;28;20050;-74
2022/12/06 08:41:58;;;;;;;5.53;3.13;;;;;;;2.92;100.00;101504.72;6222525;28;20409;-74
2022/12/06 08:44:59;;;;;;;12.90;4.28;;;;;;;2.94;100.00;101507.31;6226666;28;20402;-73
2022/12/06 08:48:00;;;;;;;7.55;3.90;;;;;;;2.94;100.00;101500.38;6227013;28;20050;-74
2022/12/06 08:51:02;;;;;;;7.70;3.95;;;;;;;2.96;100.00;101500.38;6226566;28;20049;-74
2022/12/06 08:54:05;;;;;;;10.45;4.47;;;;;;;2.96;100.00;101492.59;6226507;28;20053;-74
2022/12/06 08:57:07;;;;;;;9.18;4.15;;;;;;;3.00;100.00;101497.75;6226441;28;20421;-73
2022/12/06 09:00:09;;;;;;;12.48;5.13;;;;;;;3.05;100.00;101493.34;6226140;28;20053;-74
2022/12/06 09:03:11;;;;;;;9.48;4.30;;;;;;;3.07;100.00;101501.13;6226283;28;20567;-74
2022/12/06 09:06:12;;;;;;;9.15;4.50;;;;;;;3.01;100.00;101496.00;6226410;28;20187;-74
2022/12/06 09:09:17;;;;;;;9.20;4.28;;;;;;;3.00;100.00;101504.66;6226473;28;20050;-74
2022/12/06 09:12:18;;;;;;;10.80;4.28;;;;;;;3.01;100.00;101499.44;6226194;28;20056;-74
2022/12/06 09:15:20;;;;;;;11.82;4.40;;;;;;;3.05;100.00;101500.28;6226173;28;20510;-74
2022/12/06 09:18:22;;;;;;;10.25;4.05;;;;;;;3.01;100.00;101504.66;6225933;28;20053;-74
2022/12/06 09:21:25;;;;;;;9.60;4.68;;;;;;;3.02;100.00;101498.56;6225884;28;20390;-74
2022/12/06 09:24:28;;;;;;;17.63;5.40;;;;;;;3.04;100.00;101498.53;6225830;28;20057;-74
2022/12/06 09:27:30;;;;;;;17.58;4.50;;;;;;;3.07;100.00;101503.72;6225833;28;20050;-74
2022/12/06 09:30:31;;;;;;;11.95;4.93;;;;;;;3.12;100.00;101498.47;6225731;28;20057;-74
2022/12/06 09:33:34;;;;;;;7.05;3.38;;;;;;;3.12;100.00;101496.72;6225597;28;20413;-74
2022/12/06 09:36:41;;;;;;;10.10;4.03;;;;;;;3.18;100.00;101496.69;6225498;28;20056;-74
2022/12/06 09:39:48;;;;;;;9.13;4.22;;;;;;;3.16;100.00;101497.56;6225786;28;20050;-73
2022/12/06 09:43:04;;;;;;;11.18;4.40;;;;;;;3.17;100.00;101505.34;6225424;28;20049;-73
2022/12/06 09:46:15;;;;;;;8.95;4.03;;;;;;;3.13;100.00;101505.38;6225100;28;20169;-73
2022/12/06 09:49:27;;;;;;;10.25;5.00;;;;;;;3.16;100.00;101508.81;6223441;28;20050;-73
2022/12/06 09:52:49;;;;;;;9.15;4.22;;;;;;;3.19;100.00;101503.59;6225143;28;20658;-73
2022/12/06 09:56:02;;;;;;;8.15;3.88;;;;;;;3.17;100.00;101507.94;6223898;28;20645;-74
2022/12/06 09:59:18;;;;;;;11.30;4.38;;;;;;;3.18;100.00;101507.06;6224978;28;20136;-74
2022/12/06 10:02:36;;;;;;;8.40;4.00;;;;;;;3.21;100.00;101498.38;6224978;28;20088;-73
2022/12/06 10:05:53;;;;;;;13.10;5.20;;;;;;;3.26;100.00;101499.19;6224642;28;20050;-74
2022/12/06 10:09:05;;;;;;;10.85;4.15;;;;;;;3.36;100.00;101508.63;6224897;28;20514;-74
2022/12/06 10:12:25;;;;;;;9.02;4.25;;;;;;;3.31;100.00;101497.38;6224841;28;20060;-74
2022/12/06 10:15:43;;;;;;;14.10;5.43;;;;;;;3.29;100.00;101491.38;6224497;28;20057;-74
2022/12/06 10:18:57;;;;;;;9.63;3.95;;;;;;;3.34;100.00;101493.91;6224603;28;20057;-74
2022/12/06 10:22:09;;;;;;;13.60;5.78;;;;;;;3.35;100.00;101490.44;6224359;28;20057;-73
2022/12/06 10:25:15;;;;;;;14.15;4.63;;;;;;;3.38;100.00;101493.84;6224487;28;20050;-74
2022/12/06 10:28:30;;;;;;;16.27;5.95;;;;;;;3.36;100.00;101489.53;6224670;28;20045;-73
2022/12/06 10:31:42;;;;;;;12.07;5.20;;;;;;;3.35;100.00;101485.22;6224283;28;20049;-73
2022/12/06 10:34:52;;;;;;;13.98;5.60;;;;;;;3.36;100.00;101481.75;6224250;28;20046;-73
2022/12/06 10:38:02;;;;;;;10.30;5.05;;;;;;;3.39;100.00;101479.97;6224309;28;20060;-73
2022/12/06 10:41:11;;;;;;;13.65;5.55;;;;;;;3.44;100.00;101479.94;6223943;28;20057;-73
2022/12/06 10:44:20;;;;;;;11.00;5.75;;;;;;;3.45;100.00;101482.53;6223860;28;20402;-73
2022/12/06 10:47:25;;;;;;;13.88;5.55;;;;;;;3.46;100.00;101481.66;6223840;28;20081;-73
2022/12/06 10:50:30;;;;;;;15.07;5.55;;;;;;;3.42;100.00;101473.91;6223994;28;20053;-73
2022/12/06 10:53:40;;;;;;;15.85;6.28;;;;;;;3.36;100.00;101480.03;6223584;28;20513;-73
2022/12/06 10:56:44;;;;;;;11.32;4.75;;;;;;;3.41;100.00;101486.03;6223624;28;20508;-73
2022/12/06 10:59:53;;;;;;;8.77;4.35;;;;;;;3.50;100.00;101480.72;6223201;28;20441;-73
2022/12/06 11:03:02;;;;;;;11.30;4.05;;;;;;;3.43;100.00;101468.69;6223762;28;20042;-73
2022/12/06 11:06:09;;;;;;;11.35;5.95;;;;;;;3.42;100.00;101473.91;6223419;28;20053;-73
2022/12/06 11:09:20;;;;;;;12.65;6.00;;;;;;;3.43;100.00;101465.22;6223632;28;20050;-73
2022/12/06 11:12:25;;;;;;;13.85;5.95;;;;;;;3.48;100.00;101468.63;6223349;28;20544;-73
2022/12/06 11:15:35;;;;;;;11.75;4.53;;;;;;;3.46;100.00;101467.78;6223338;28;20050;-76
2022/12/06 11:18:36;;;;;;;;;;;;;;;3.49;100.00;101470.34;6220561;28;20046;-73
2022/12/06 11:21:45;;;;;;;11.85;5.30;;;;;;;3.51;100.00;101466.84;6205716;28;19921;-74
2022/12/06 11:24:52;;;;;;;10.20;4.55;;;;;;;3.46;100.00;101468.66;6198369;28;20086;-73
2022/12/06 11:28:00;;;;;;;14.02;5.32;;;;;;;3.47;100.00;101469.50;6201405;28;20049;-73
2022/12/06 11:31:14;;;;;;;8.88;4.22;;;;;;;3.51;100.00;101461.66;6209675;28;20054;-73
2022/12/06 11:34:20;;;;;;;9.57;4.70;;;;;;;3.48;100.00;101464.28;6208518;28;20042;-73
2022/12/06 11:37:23;;;;;;;10.18;4.78;;;;;;;3.46;100.00;101458.25;6208765;28;20386;-73
2022/12/06 11:40:29;;;;;;;11.52;5.40;;;;;;;3.49;100.00;101453.00;6209616;28;20047;-73
2022/12/06 11:43:34;;;;;;;9.80;4.78;;;;;;;3.46;100.00;101455.66;6207728;28;20137;-73
2022/12/06 11:46:36;;;;;;;13.05;5.07;;;;;;;3.51;100.00;101453.00;6209460;28;20069;-73
2022/12/06 11:49:41;;;;;;;12.18;5.25;;;;;;;3.55;100.00;101452.09;6208519;28;20521;-73
2022/12/06 11:52:47;;;;;;;7.85;4.13;;;;;;;3.51;100.00;101448.66;6208296;28;20042;-73
2022/12/06 11:55:52;;;;;;;9.80;4.35;;;;;;;3.58;100.00;101456.38;6209883;28;20046;-73
2022/12/06 11:59:09;;;;;;;11.40;5.25;;;;;;;3.61;100.00;101448.53;6207445;28;20458;-73
2022/12/06 12:02:30;;;;;;;9.88;4.65;;;;;;;3.56;100.00;101448.59;6209738;28;20045;-73
2022/12/06 12:05:35;;;;;;;14.25;5.35;;;;;;;3.55;100.00;101442.53;6207521;28;20054;-73
2022/12/06 12:08:37;;;;;;;9.85;4.45;;;;;;;3.60;100.00;101442.47;6208943;28;20425;-72
2022/12/06 12:11:40;;;;;;;11.85;5.38;;;;;;;3.60;100.00;101445.09;6208233;28;20050;-72
2022/12/06 12:14:43;;;;;;;7.50;4.00;;;;;;;3.65;100.00;101438.09;6208009;28;20046;-72
2022/12/06 12:17:51;;;;;;;8.50;4.40;;;;;;;3.67;100.00;101431.09;6208190;28;20039;-72
2022/12/06 12:20:54;;;;;;;11.05;4.22;;;;;;;3.63;100.00;101425.97;6207274;28;20047;-72
2022/12/06 12:23:57;;;;;;;6.13;3.47;;;;;;;3.62;100.00;101421.66;6208596;28;20448;-72
2022/12/06 12:26:58;;;;;;;6.97;3.30;;;;;;;3.64;100.00;101423.38;6207895;28;20652;-72
2022/12/06 12:30:23;;;;;;;10.25;4.43;;;;;;;3.62;100.00;101430.31;6208035;28;20069;-72
2022/12/06 12:33:26;;;;;;;9.20;3.70;;;;;;;3.62;100.00;101421.66;6208810;28;20038;-72
2022/12/06 12:36:29;;;;;;;9.35;4.22;;;;;;;3.61;100.00;101423.41;6206998;28;20501;-72
2022/12/06 12:39:34;;;;;;;10.95;4.47;;;;;;;3.58;100.00;101427.78;6209430;28;20047;-72
2022/12/06 12:42:38;;;;;;;8.38;3.13;;;;;;;3.63;100.00;101423.38;6207104;28;20128;-72
2022/12/06 12:46:01;;;;;;;8.95;4.22;;;;;;;3.64;100.00;101423.38;6208084;28;20049;-71
2022/12/06 12:49:22;;;;;;;8.98;3.80;;;;;;;3.60;100.00;101418.25;6208194;28;20435;-72
2022/12/06 12:52:28;;;;;;;15.55;4.03;;;;;;;3.67;100.00;101417.25;6208114;28;20046;-72
2022/12/06 12:55:31;;;;;;;9.43;4.13;;;;;;;3.61;100.00;101418.22;6206950;28;20054;-72
2022/12/06 12:58:32;;;;;;;8.52;4.60;;;;;;;3.59;100.00;101413.91;6215693;28;20049;-73
2022/12/06 13:01:40;;;;;;;11.02;5.03;;;;;;;3.61;100.00;101418.22;6221401;28;20598;-72
2022/12/06 13:04:45;;;;;;;7.95;4.07;;;;;;;3.52;100.00;101416.59;6221653;28;20042;-72
2022/12/06 13:07:49;;;;;;;6.30;3.95;;;;;;;3.61;100.00;101417.34;6221595;28;20053;-72
2022/12/06 13:10:54;;;;;;;7.60;3.80;;;;;;;3.62;100.00;101414.72;6221584;28;20050;-72
2022/12/06 13:13:57;;;;;;;10.43;4.15;;;;;;;3.55;100.00;101411.38;6221348;28;20049;-72
2022/12/06 13:17:05;;;;;;;6.20;2.85;;;;;;;3.59;100.00;101409.59;6222006;28;20054;-72
2022/12/06 13:20:20;;;;;;;5.65;2.83;;;;;;;3.58;100.00;101409.59;6202750;28;20081;-72
2022/12/06 13:23:25;;;;;;;7.68;4.75;;;;;;;3.54;100.00;101419.16;6197090;28;20510;-72
2022/12/06 13:26:31;;;;;;;7.28;3.42;;;;;;;3.56;100.00;101420.88;6196979;28;20140;-72
2022/12/06 13:29:37;;;;;;;6.28;2.80;;;;;;;3.53;100.00;101417.44;6199867;28;20054;-72
2022/12/06 13:32:43;;;;;;;9.45;3.75;;;;;;;3.55;100.00;101408.75;6201377;28;20057;-72
2022/12/06 13:35:51;;;;;;;9.27;3.65;;;;;;;3.51;100.00;101414.88;6201224;28;20046;-72
2022/12/06 13:38:54;;;;;;;7.57;3.60;;;;;;;3.53;100.00;101417.44;6201265;28;20054;-72
2022/12/06 13:45:39;;;;;;;8.68;4.05;;;;;;;3.49;100.00;101423.56;6201135;28;20058;-72
2022/12/06 13:48:50;;;;;;;6.90;2.67;;;;;;;3.43;100.00;101416.72;6201046;28;20521;-72
2022/12/06 13:51:53;;;;;;;9.95;2.88;;;;;;;3.48;100.00;101409.72;6200873;28;20197;-72
2022/12/06 13:54:54;;;;;;;4.75;2.65;;;;;;;3.45;100.00;101411.50;6200729;28;20057;-72
2022/12/06 13:58:17;;;;;;;6.53;3.15;;;;;;;3.45;100.00;101419.28;6200617;28;20521;-72
2022/12/06 14:01:37;;;;;;;7.15;3.72;;;;;;;3.47;100.00;101414.94;6200207;28;20058;-72
2022/12/06 14:04:41;;;;;;;7.40;3.30;;;;;;;3.45;100.00;101416.69;6200436;28;20043;-72
2022/12/06 14:07:44;;;;;;;6.43;2.80;;;;;;;3.47;100.00;101415.81;6200551;28;20057;-72
2022/12/06 14:10:45;;;;;;;5.95;3.28;;;;;;;3.47;100.00;101415.81;6200290;28;20518;-72
2022/12/06 14:13:49;;;;;;;8.20;2.55;;;;;;;3.48;100.00;101414.06;6200124;28;20051;-72
2022/12/06 14:16:53;;;;;;;4.88;2.28;;;;;;;3.45;100.00;101404.59;6200353;28;20509;-72
2022/12/06 14:19:54;;;;;;;4.28;2.03;;;;;;;3.47;100.00;101400.22;6200287;28;20042;-72
2022/12/06 14:22:58;;;;;;;4.22;2.38;;;;;;;3.48;100.00;101399.31;6200399;28;20049;-72
2022/12/06 14:26:13;;;;;;;4.40;2.30;;;;;;;3.43;100.00;101408.06;6200100;28;20065;-72
2022/12/06 14:29:20;;;;;;;6.13;2.67;;;;;;;3.45;100.00;101396.78;6200078;28;20133;-72
2022/12/06 14:32:30;;;;;;;3.40;2.00;;;;;;;3.46;100.00;101405.44;6199831;28;20050;-72
2022/12/06 14:35:34;;;;;;;4.03;2.13;;;;;;;3.43;100.00;101403.72;6199962;28;20046;-73
2022/12/06 14:38:37;;;;;;;3.65;1.90;;;;;;;3.44;100.00;101395.03;6199903;28;20053;-72